createdAt,value
2019-01-29T00:01:24.193Z,2.60
2019-01-29T00:06:29.376Z,1.73
2019-01-29T00:11:34.540Z,2.47
2019-01-29T00:16:39.753Z,2.20
2019-01-29T00:21:45.146Z,1.93
2019-01-29T00:26:50.723Z,1.97
2019-01-29T00:31:55.928Z,2.40
2019-01-29T00:37:01.178Z,2.90
2019-01-29T00:42:06.362Z,2.73
2019-01-29T00:47:13.663Z,3.10
2019-01-29T00:52:18.844Z,2.90
2019-01-29T00:57:24.025Z,3.30
2019-01-29T01:02:29.203Z,2.90
2019-01-29T01:07:34.459Z,3.10
2019-01-29T01:12:39.630Z,3.80
2019-01-29T01:17:44.816Z,3.60
2019-01-29T01:22:51.046Z,3.90
2019-01-29T01:27:56.734Z,3.80
2019-01-29T01:33:01.921Z,3.40
2019-01-29T01:38:07.098Z,3.57
2019-01-29T01:43:12.624Z,3.37
2019-01-29T01:48:19.359Z,3.87
2019-01-29T01:53:25.356Z,4.47
2019-01-29T01:58:30.536Z,4.43
2019-01-29T02:03:35.805Z,5.23
2019-01-29T02:08:41.030Z,5.27
2019-01-29T02:13:46.214Z,4.87
2019-01-29T02:18:51.402Z,4.10
2019-01-29T02:23:56.588Z,3.90
2019-01-29T02:29:02.152Z,3.40
2019-01-29T02:34:07.349Z,3.40
2019-01-29T02:39:12.923Z,2.93
2019-01-29T02:44:18.093Z,2.67
2019-01-29T02:49:23.290Z,2.63
2019-01-29T02:54:28.476Z,2.70
2019-01-29T02:59:33.658Z,2.13
2019-01-29T03:04:38.659Z,2.40
2019-01-29T03:09:44.226Z,2.27
2019-01-29T03:14:49.406Z,2.40
2019-01-29T03:19:54.593Z,2.40
2019-01-29T03:24:59.873Z,2.70
2019-01-29T03:30:06.257Z,2.37
2019-01-29T03:35:11.738Z,2.53
2019-01-29T03:40:22.202Z,2.73
2019-01-29T03:45:27.447Z,2.53
2019-01-29T03:50:32.815Z,2.57
2019-01-29T03:55:38.009Z,2.57
2019-01-29T04:00:43.210Z,2.83
2019-01-29T04:05:48.641Z,2.67
2019-01-29T04:10:53.826Z,2.90
2019-01-29T04:15:59.093Z,2.47
2019-01-29T04:21:04.946Z,2.30
2019-01-29T04:26:10.128Z,2.33
2019-01-29T04:31:15.720Z,2.70
2019-01-29T04:36:20.909Z,2.90
2019-01-29T04:41:26.078Z,2.93
2019-01-29T04:46:32.175Z,2.80
2019-01-29T04:51:37.376Z,2.70
2019-01-29T04:56:42.542Z,3.00
2019-01-29T05:01:47.933Z,2.70
2019-01-29T05:06:54.024Z,2.50
2019-01-29T05:11:59.209Z,2.87
2019-01-29T05:17:04.498Z,3.00
2019-01-29T05:22:09.670Z,3.30
2019-01-29T05:27:14.989Z,2.87
2019-01-29T05:32:20.527Z,2.80
2019-01-29T05:37:25.714Z,3.20
2019-01-29T05:42:30.811Z,3.07
2019-01-29T05:47:35.999Z,3.53
2019-01-29T05:52:42.339Z,3.20
2019-01-29T05:57:48.526Z,2.70
2019-01-29T06:02:53.708Z,3.60
2019-01-29T06:07:58.905Z,2.97
2019-01-29T06:13:04.218Z,2.83
2019-01-29T06:18:10.409Z,3.47
2019-01-29T06:23:16.344Z,3.17
2019-01-29T06:28:21.542Z,3.07
2019-01-29T06:33:27.045Z,2.90
2019-01-29T06:38:32.695Z,3.37
2019-01-29T06:43:37.867Z,3.17
2019-01-29T06:48:43.040Z,2.80
2019-01-29T06:53:48.213Z,3.20
2019-01-29T06:58:53.378Z,2.70
2019-01-29T07:03:58.546Z,3.00
2019-01-29T07:09:06.245Z,3.23
2019-01-29T07:14:11.431Z,3.10
2019-01-29T07:19:30.746Z,3.10
2019-01-29T07:24:42.808Z,3.23
2019-01-29T07:29:44.104Z,2.93
2019-01-29T07:34:49.298Z,3.47
2019-01-29T07:39:54.823Z,3.50
2019-01-29T07:45:00.001Z,3.70
2019-01-29T07:50:06.466Z,4.93
2019-01-29T07:55:11.737Z,4.10
2019-01-29T08:00:17.540Z,4.07
2019-01-29T08:05:22.702Z,4.60
2019-01-29T08:10:27.910Z,4.20
2019-01-29T08:15:33.090Z,4.27
2019-01-29T08:20:39.265Z,4.00
2019-01-29T08:25:47.838Z,4.43
2019-01-29T08:30:51.815Z,3.80
2019-01-29T08:35:57.331Z,3.60
2019-01-29T08:41:04.490Z,3.40
2019-01-29T08:46:09.974Z,3.40
2019-01-29T08:51:15.516Z,3.63
2019-01-29T08:56:22.182Z,4.10
2019-01-29T09:01:27.728Z,3.43
2019-01-29T09:06:33.186Z,4.13
2019-01-29T09:11:38.353Z,3.80
2019-01-29T09:16:43.829Z,3.50
2019-01-29T09:21:48.999Z,3.87
2019-01-29T09:26:54.241Z,3.57
2019-01-29T09:31:59.449Z,3.70
2019-01-29T09:37:05.026Z,3.50
2019-01-29T09:42:10.203Z,3.17
2019-01-29T09:47:15.374Z,2.97
2019-01-29T09:52:20.542Z,3.20
2019-01-29T09:57:25.710Z,3.00
2019-01-29T10:02:30.873Z,3.23
2019-01-29T10:07:36.147Z,2.80
2019-01-29T10:12:41.355Z,3.10
2019-01-29T10:17:47.080Z,3.40
2019-01-29T10:22:52.258Z,3.33
2019-01-29T10:27:57.430Z,3.30
2019-01-29T10:33:02.629Z,3.23
2019-01-29T10:38:07.868Z,3.37
2019-01-29T10:43:13.036Z,3.17
2019-01-29T10:48:18.215Z,3.00
2019-01-29T10:53:23.392Z,3.60
2019-01-29T10:58:28.550Z,3.30
2019-01-29T11:03:33.758Z,3.40
2019-01-29T11:08:38.917Z,3.03
2019-01-29T11:13:44.375Z,2.77
2019-01-29T11:18:49.545Z,3.10
2019-01-29T11:23:54.729Z,2.70
2019-01-29T11:29:00.042Z,3.27
2019-01-29T11:34:05.545Z,3.17
2019-01-29T11:39:11.666Z,2.90
2019-01-29T11:44:16.921Z,3.07
2019-01-29T11:49:22.415Z,2.70
2019-01-29T11:54:27.580Z,2.70
2019-01-29T11:59:33.046Z,2.90
2019-01-29T12:04:38.215Z,2.63
2019-01-29T12:09:43.477Z,2.60
2019-01-29T12:14:48.927Z,2.50
2019-01-29T12:19:54.528Z,2.73
2019-01-29T12:24:59.694Z,2.20
2019-01-29T12:30:07.837Z,2.50
2019-01-29T12:35:13.986Z,2.57
2019-01-29T12:40:19.169Z,2.30
2019-01-29T12:45:24.774Z,3.63
2019-01-29T12:50:30.117Z,2.50
2019-01-29T12:55:35.410Z,3.23
2019-01-29T13:00:46.350Z,3.43
2019-01-29T13:05:51.565Z,3.60
2019-01-29T13:10:56.739Z,3.53
2019-01-29T13:16:02.247Z,3.70
2019-01-29T13:21:07.700Z,3.03
2019-01-29T13:26:12.875Z,3.57
2019-01-29T13:31:18.073Z,3.30
2019-01-29T13:36:23.271Z,3.20
2019-01-29T13:41:28.540Z,3.10
2019-01-29T13:46:33.889Z,3.00
2019-01-29T13:51:39.744Z,2.80
2019-01-29T13:56:46.201Z,2.57
2019-01-29T14:01:51.538Z,2.27
2019-01-29T14:06:56.696Z,2.40
2019-01-29T14:12:02.260Z,2.83
2019-01-29T14:17:07.427Z,3.43
2019-01-29T14:22:12.674Z,3.73
2019-01-29T14:27:18.177Z,4.50
2019-01-29T14:32:23.860Z,5.03
2019-01-29T14:37:29.056Z,4.70
2019-01-29T14:42:34.555Z,4.83
2019-01-29T14:47:40.087Z,4.20
2019-01-29T14:52:47.068Z,4.00
2019-01-29T14:57:53.228Z,3.40
2019-01-29T15:02:59.755Z,3.50
2019-01-29T15:08:05.345Z,3.30
2019-01-29T15:13:11.488Z,2.80
2019-01-29T15:18:29.813Z,3.40
2019-01-29T15:23:34.985Z,3.60
2019-01-29T15:28:40.339Z,4.50
2019-01-29T15:33:45.920Z,3.20
2019-01-29T15:38:51.465Z,4.90
2019-01-29T15:43:56.632Z,5.47
2019-01-29T15:49:02.408Z,3.90
2019-01-29T15:54:07.595Z,4.60
2019-01-29T15:59:13.126Z,4.67
2019-01-29T16:04:19.335Z,4.27
2019-01-29T16:09:24.625Z,3.77
2019-01-29T16:14:29.934Z,4.10
2019-01-29T16:19:35.480Z,4.13
2019-01-29T16:24:40.675Z,3.83
2019-01-29T16:29:45.859Z,3.53
2019-01-29T16:34:51.607Z,4.20
2019-01-29T16:39:57.915Z,3.70
2019-01-29T16:45:03.164Z,3.80
2019-01-29T16:50:10.531Z,3.40
2019-01-29T16:55:17.297Z,3.97
2019-01-29T17:00:28.679Z,4.40
2019-01-29T17:05:33.916Z,4.43
2019-01-29T17:10:39.258Z,4.73
2019-01-29T17:15:44.441Z,4.80
2019-01-29T17:20:50.052Z,5.27
2019-01-29T17:25:55.632Z,4.90
2019-01-29T17:31:02.038Z,4.80
2019-01-29T17:36:07.237Z,4.60
2019-01-29T17:41:12.422Z,4.10
2019-01-29T17:46:19.146Z,3.70
2019-01-29T17:51:24.132Z,4.10
2019-01-29T17:56:29.649Z,4.20
2019-01-29T18:01:34.918Z,4.27
2019-01-29T18:06:40.909Z,3.97
2019-01-29T18:11:48.209Z,3.73
2019-01-29T18:16:53.425Z,4.27
2019-01-29T18:21:59.313Z,4.40
2019-01-29T18:27:06.094Z,4.70
2019-01-29T18:32:11.630Z,5.13
2019-01-29T18:37:17.032Z,4.80
2019-01-29T18:42:22.335Z,5.27
2019-01-29T18:47:27.803Z,4.60
2019-01-29T18:52:33.911Z,5.00
2019-01-29T18:57:39.487Z,4.90
2019-01-29T19:02:44.667Z,5.03
2019-01-29T19:07:49.881Z,4.83
2019-01-29T19:12:55.147Z,5.30
2019-01-29T19:18:00.784Z,4.47
2019-01-29T19:23:06.225Z,5.33
2019-01-29T19:28:21.407Z,5.27
2019-01-29T19:33:19.905Z,5.30
2019-01-29T19:38:25.093Z,5.23
2019-01-29T19:43:30.215Z,5.40
2019-01-29T19:48:36.705Z,5.13
2019-01-29T19:53:42.004Z,5.43
2019-01-29T19:58:47.135Z,5.80
2019-01-29T20:03:52.347Z,6.90
2019-01-29T20:08:57.678Z,6.00
2019-01-29T20:14:03.212Z,6.80
2019-01-29T20:19:08.488Z,7.10
2019-01-29T20:24:14.082Z,6.47
2019-01-29T20:29:19.281Z,7.10
2019-01-29T20:34:24.474Z,7.10
2019-01-29T20:39:34.984Z,7.20
2019-01-29T20:44:36.587Z,8.77
2019-01-29T20:49:41.761Z,7.60
2019-01-29T20:54:47.028Z,8.27
2019-01-29T20:59:52.220Z,8.83
2019-01-29T21:04:57.405Z,8.03
2019-01-29T21:10:03.323Z,8.37
2019-01-29T21:15:10.725Z,9.30
2019-01-29T21:20:17.933Z,8.60
2019-01-29T21:25:23.119Z,8.03
2019-01-29T21:30:33.450Z,8.80
2019-01-29T21:35:38.686Z,8.70
2019-01-29T21:40:44.672Z,8.07
2019-01-29T21:45:49.863Z,8.23
2019-01-29T21:50:55.155Z,7.97
2019-01-29T21:56:00.339Z,7.37
2019-01-29T22:01:06.983Z,7.93
2019-01-29T22:06:13.204Z,7.87
2019-01-29T22:11:18.487Z,7.87
2019-01-29T22:16:23.683Z,7.43
2019-01-29T22:21:29.327Z,7.40
2019-01-29T22:26:35.414Z,6.77
2019-01-29T22:31:40.634Z,7.37
2019-01-29T22:36:46.159Z,6.73
2019-01-29T22:41:51.392Z,6.80
2019-01-29T22:46:56.883Z,6.80
2019-01-29T22:52:02.180Z,7.30
2019-01-29T22:57:08.470Z,6.53
2019-01-29T23:02:13.783Z,6.93
2019-01-29T23:07:27.953Z,7.10
2019-01-29T23:12:34.521Z,7.47
2019-01-29T23:17:39.711Z,7.50
2019-01-29T23:22:45.201Z,7.90
2019-01-29T23:27:50.388Z,6.93
2019-01-29T23:32:55.629Z,7.67
2019-01-29T23:38:01.822Z,7.90
2019-01-29T23:43:07.773Z,8.80
2019-01-29T23:48:13.076Z,8.57
2019-01-29T23:53:18.249Z,8.77
2019-01-29T23:58:23.476Z,8.33
